< Typhoon 195112 1951 Season Typhoon 195114 >
Typhoon 195113 (ORA)
General InformationTrack Information on Google Maps || Disaster Info.ResourceGoogle EarthGE AnimationAtom FeedGeoJSON
Detalied Best Track (Time Zone = UTC)
Year Month Day Hour Lat. Long. Pressure (hPa) Wind (kt) Class Image Chart
1951 9 11 18 8.0 147.6 1006 0 2 -- Chart
1951 9 12 00 8.4 146.8 1006 0 2 -- Chart
1951 9 12 06 8.8 146.1 1004 0 2 -- Chart
1951 9 12 12 9.4 145.3 1004 0 2 -- Chart
1951 9 12 18 10.0 144.4 1004 0 2 -- Chart
1951 9 13 00 10.6 143.5 1004 0 2 -- Chart
1951 9 13 06 11.2 142.6 1004 0 2 -- Chart
1951 9 13 12 11.7 141.7 1004 0 2 -- Chart
1951 9 13 18 12.2 140.6 1004 0 2 -- Chart
1951 9 14 00 12.6 139.4 1004 0 2 -- Chart
1951 9 14 06 13.0 138.2 1002 0 2 -- Chart
1951 9 14 12 13.0 137.0 1002 0 2 -- Chart
1951 9 14 18 13.0 135.6 1000 0 2 -- Chart
1951 9 15 00 13.0 134.5 1000 0 2 -- Chart
1951 9 15 06 13.1 133.5 1000 0 2 -- Chart
1951 9 15 12 13.4 132.6 998 0 2 -- Chart
1951 9 15 18 13.7 131.8 998 0 2 -- Chart
1951 9 16 00 13.8 131.0 998 0 9 -- Chart
1951 9 16 06 14.1 130.1 985 0 9 -- Chart
1951 9 16 12 14.4 129.3 985 0 9 -- Chart
1951 9 16 18 14.8 128.5 985 0 9 -- Chart
1951 9 17 00 15.3 127.7 985 0 9 -- Chart
1951 9 17 06 15.5 126.7 985 0 9 -- Chart
1951 9 17 12 16.3 126.0 985 0 9 -- Chart
1951 9 17 18 16.7 125.3 980 0 9 -- Chart
1951 9 18 00 17.3 124.7 980 0 9 -- Chart
1951 9 18 06 18.2 124.0 980 0 9 -- Chart
1951 9 18 12 19.0 123.0 980 0 9 -- Chart
1951 9 18 18 19.3 121.5 980 0 9 -- Chart
1951 9 19 00 19.2 120.6 980 0 9 -- Chart
1951 9 19 06 19.0 119.9 980 0 9 -- Chart
1951 9 19 12 19.0 118.6 980 0 9 -- Chart
1951 9 19 18 19.2 117.6 980 0 9 -- Chart
1951 9 20 00 19.5 116.4 980 0 9 -- Chart
1951 9 20 06 19.5 115.6 980 0 9 -- Chart
1951 9 20 12 19.4 114.6 980 0 9 -- Chart
1951 9 20 18 19.4 113.4 980 0 9 -- Chart
1951 9 21 00 19.4 112.5 990 0 9 -- Chart
1951 9 21 06 19.4 111.6 990 0 9 -- Chart
1951 9 21 12 19.5 110.6 990 0 9 -- Chart
1951 9 21 18 19.5 109.5 996 0 9 -- Chart
Japan Meteorological Agency Best Track Data | Correction Date : 1990-10-17
< Typhoon 195112 1951 Season Typhoon 195114 >

Help